createdAt,value
2018-07-24T00:01:27.624Z,18.50
2018-07-24T00:03:57.173Z,18.50
2018-07-24T00:06:26.566Z,18.50
2018-07-24T00:08:56.063Z,18.40
2018-07-24T00:11:25.368Z,18.50
2018-07-24T00:13:54.596Z,18.50
2018-07-24T00:16:23.850Z,18.50
2018-07-24T00:18:53.080Z,18.50
2018-07-24T00:21:22.294Z,18.50
2018-07-24T00:23:52.251Z,18.50
2018-07-24T00:28:50.232Z,18.50
2018-07-24T00:31:20.322Z,18.40
2018-07-24T00:33:49.642Z,18.50
2018-07-24T00:36:18.901Z,18.50
2018-07-24T00:38:48.328Z,18.50
2018-07-24T00:41:17.520Z,18.50
2018-07-24T00:43:46.782Z,18.50
2018-07-24T00:46:16.025Z,18.40
2018-07-24T00:48:45.287Z,18.40
2018-07-24T00:51:14.619Z,18.40
2018-07-24T00:53:43.874Z,18.40
2018-07-24T00:56:13.155Z,18.40
2018-07-24T00:58:42.736Z,18.40
2018-07-24T01:01:12.043Z,18.40
2018-07-24T01:06:10.059Z,18.40
2018-07-24T01:11:08.208Z,18.30
2018-07-24T01:13:37.444Z,18.30
2018-07-24T01:16:06.908Z,18.40
2018-07-24T01:18:36.167Z,18.40
2018-07-24T01:21:05.394Z,18.40
2018-07-24T01:23:34.622Z,18.40
2018-07-24T01:26:03.850Z,18.30
2018-07-24T01:28:33.059Z,18.30
2018-07-24T01:33:31.075Z,18.30
2018-07-24T01:36:00.615Z,18.30
2018-07-24T01:38:29.832Z,18.30
2018-07-24T01:40:59.035Z,18.30
2018-07-24T01:43:28.332Z,18.30
2018-07-24T01:45:57.503Z,18.20
2018-07-24T01:48:26.764Z,18.30
2018-07-24T01:50:56.020Z,18.20
2018-07-24T01:53:25.344Z,18.20
2018-07-24T01:55:54.599Z,18.20
2018-07-24T01:58:23.862Z,18.20
2018-07-24T02:00:53.231Z,18.20
2018-07-24T02:03:22.560Z,18.20
2018-07-24T02:05:51.875Z,18.10
2018-07-24T02:08:21.174Z,18.10
2018-07-24T02:10:50.480Z,18.00
2018-07-24T02:13:20.231Z,18.00
2018-07-24T02:15:49.450Z,17.90
2018-07-24T02:18:19.072Z,17.80
2018-07-24T02:20:48.294Z,17.80
2018-07-24T02:23:17.628Z,17.70
2018-07-24T02:25:46.919Z,17.70
2018-07-24T02:28:16.289Z,17.60
2018-07-24T02:30:45.469Z,17.60
2018-07-24T02:33:14.708Z,17.50
2018-07-24T02:35:44.369Z,17.40
2018-07-24T02:38:14.555Z,17.40
2018-07-24T02:40:43.879Z,17.30
2018-07-24T02:48:11.134Z,17.20
2018-07-24T02:50:40.370Z,17.10
2018-07-24T02:53:09.584Z,17.10
2018-07-24T02:55:38.850Z,17.10
2018-07-24T02:58:08.044Z,17.00
2018-07-24T03:03:06.091Z,17.00
2018-07-24T03:05:35.427Z,16.90
2018-07-24T03:08:04.688Z,16.90
2018-07-24T03:10:33.975Z,16.90
2018-07-24T03:13:03.580Z,16.90
2018-07-24T03:15:32.967Z,16.90
2018-07-24T03:18:02.259Z,16.80
2018-07-24T03:20:31.393Z,16.80
2018-07-24T03:23:00.540Z,16.80
2018-07-24T03:25:29.723Z,16.80
2018-07-24T03:27:58.947Z,16.70
2018-07-24T03:30:28.256Z,16.70
2018-07-24T03:32:57.493Z,16.70
2018-07-24T03:35:26.811Z,16.70
2018-07-24T03:37:56.058Z,16.60
2018-07-24T03:40:26.890Z,16.60
2018-07-24T03:45:24.825Z,16.60
2018-07-24T03:47:54.080Z,16.50
2018-07-24T03:50:23.328Z,16.50
2018-07-24T03:52:52.564Z,16.50
2018-07-24T03:55:21.807Z,16.50
2018-07-24T03:57:51.765Z,16.50
2018-07-24T04:00:21.287Z,16.50
2018-07-24T04:05:19.194Z,16.50
2018-07-24T04:07:50.815Z,16.50
2018-07-24T04:10:21.246Z,16.50
2018-07-24T04:12:50.724Z,16.40
2018-07-24T04:15:20.023Z,16.40
2018-07-24T04:17:49.289Z,16.40
2018-07-24T04:20:20.763Z,16.40
2018-07-24T04:22:50.882Z,16.40
2018-07-24T04:25:20.148Z,16.40
2018-07-24T04:27:49.407Z,16.40
2018-07-24T04:30:19.134Z,16.40
2018-07-24T04:32:48.326Z,16.40
2018-07-24T04:35:17.593Z,16.40
2018-07-24T04:37:46.827Z,16.40
2018-07-24T04:40:16.170Z,16.40
2018-07-24T04:42:45.392Z,16.40
2018-07-24T04:45:14.743Z,16.40
2018-07-24T04:47:43.932Z,16.40
2018-07-24T04:50:13.131Z,16.40
2018-07-24T04:52:42.307Z,16.50
2018-07-24T04:55:11.511Z,16.50
2018-07-24T04:57:40.765Z,16.50
2018-07-24T05:00:09.960Z,16.50
2018-07-24T05:02:39.249Z,16.60
2018-07-24T05:05:08.492Z,16.60
2018-07-24T05:07:37.732Z,16.60
2018-07-24T05:10:07.068Z,16.70
2018-07-24T05:12:36.394Z,16.70
2018-07-24T05:15:05.764Z,16.80
2018-07-24T05:17:35.064Z,16.80
2018-07-24T05:20:04.524Z,16.80
2018-07-24T05:22:33.816Z,16.90
2018-07-24T05:25:03.086Z,17.00
2018-07-24T05:27:32.417Z,17.00
2018-07-24T05:30:01.741Z,17.10
2018-07-24T05:32:30.934Z,17.10
2018-07-24T05:35:00.189Z,17.20
2018-07-24T05:37:29.401Z,17.30
2018-07-24T05:39:58.633Z,17.40
2018-07-24T05:42:27.955Z,17.40
2018-07-24T05:45:00.466Z,17.50
2018-07-24T05:47:29.787Z,17.60
2018-07-24T05:49:59.051Z,17.70
2018-07-24T05:52:28.311Z,17.70
2018-07-24T05:54:57.523Z,17.80
2018-07-24T05:57:26.779Z,17.90
2018-07-24T05:59:56.016Z,18.00
2018-07-24T06:02:25.369Z,18.10
2018-07-24T06:04:54.644Z,18.20
2018-07-24T06:07:23.999Z,18.20
2018-07-24T06:09:53.294Z,18.30
2018-07-24T06:12:22.628Z,18.40
2018-07-24T06:14:51.902Z,18.50
2018-07-24T06:19:49.944Z,18.70
2018-07-24T06:22:19.224Z,18.80
2018-07-24T06:24:48.400Z,18.90
2018-07-24T06:27:17.662Z,19.00
2018-07-24T06:29:46.879Z,19.10
2018-07-24T06:32:16.099Z,19.20
2018-07-24T06:34:45.287Z,19.30
2018-07-24T06:37:14.639Z,19.40
2018-07-24T06:39:43.970Z,19.50
2018-07-24T06:42:13.211Z,19.60
2018-07-24T06:44:42.505Z,19.70
2018-07-24T06:47:11.749Z,19.80
2018-07-24T06:49:41.011Z,19.90
2018-07-24T06:52:10.227Z,20.00
2018-07-24T06:54:39.383Z,20.10
2018-07-24T06:57:08.615Z,20.20
2018-07-24T06:59:37.889Z,20.30
2018-07-24T07:02:07.420Z,20.40
2018-07-24T07:07:05.466Z,20.60
2018-07-24T07:09:34.664Z,20.70
2018-07-24T07:12:03.983Z,20.80
2018-07-24T07:14:33.167Z,20.90
2018-07-24T07:17:02.419Z,21.00
2018-07-24T07:19:31.542Z,21.10
2018-07-24T07:22:00.740Z,21.20
2018-07-24T07:24:29.981Z,21.30
2018-07-24T07:26:59.224Z,21.40
2018-07-24T07:29:28.491Z,21.50
2018-07-24T07:31:57.724Z,21.60
2018-07-24T07:34:26.969Z,21.60
2018-07-24T07:36:56.324Z,21.80
2018-07-24T07:39:25.607Z,21.90
2018-07-24T07:41:54.861Z,21.90
2018-07-24T07:44:24.228Z,22.10
2018-07-24T07:46:53.560Z,22.10
2018-07-24T07:49:22.858Z,22.20
2018-07-24T07:51:52.141Z,22.30
2018-07-24T07:56:50.820Z,22.50
2018-07-24T07:59:20.172Z,22.60
2018-07-24T08:01:49.500Z,22.70
2018-07-24T08:04:18.884Z,22.80
2018-07-24T08:06:48.084Z,22.90
2018-07-24T08:09:17.421Z,23.00
2018-07-24T08:11:46.706Z,23.10
2018-07-24T08:14:16.075Z,23.20
2018-07-24T08:16:45.220Z,23.30
2018-07-24T08:19:14.507Z,23.40
2018-07-24T08:21:43.712Z,23.50
2018-07-24T08:24:12.984Z,23.60
2018-07-24T08:26:42.223Z,23.70
2018-07-24T08:29:11.739Z,23.80
2018-07-24T08:31:40.932Z,23.90
2018-07-24T08:34:10.256Z,24.00
2018-07-24T08:36:39.640Z,24.20
2018-07-24T08:39:11.280Z,24.30
2018-07-24T08:41:40.523Z,24.40
2018-07-24T08:44:09.836Z,24.50
2018-07-24T08:46:39.096Z,24.60
2018-07-24T08:49:08.329Z,24.70
2018-07-24T08:51:37.599Z,24.80
2018-07-24T08:54:06.973Z,24.90
2018-07-24T08:56:36.143Z,25.00
2018-07-24T08:59:05.464Z,25.10
2018-07-24T09:01:34.722Z,25.10
2018-07-24T09:04:04.068Z,25.20
2018-07-24T09:06:33.311Z,25.30
2018-07-24T09:09:02.604Z,25.50
2018-07-24T09:11:31.822Z,25.50
2018-07-24T09:14:01.067Z,25.60
2018-07-24T09:16:30.254Z,25.70
2018-07-24T09:18:59.503Z,25.80
2018-07-24T09:21:28.754Z,25.90
2018-07-24T09:23:58.052Z,25.90
2018-07-24T09:26:27.322Z,25.90
2018-07-24T09:28:56.596Z,25.90
2018-07-24T09:31:25.910Z,26.00
2018-07-24T09:33:55.201Z,26.10
2018-07-24T09:36:25.772Z,26.10
2018-07-24T09:38:55.083Z,26.20
2018-07-24T09:41:24.459Z,26.20
2018-07-24T09:43:54.139Z,26.20
2018-07-24T09:46:24.307Z,26.30
2018-07-24T09:48:53.506Z,26.30
2018-07-24T09:51:22.696Z,26.40
2018-07-24T09:53:52.103Z,26.40
2018-07-24T09:56:21.446Z,26.40
2018-07-24T09:58:50.679Z,26.40
2018-07-24T10:01:25.026Z,26.30
2018-07-24T10:03:54.410Z,26.30
2018-07-24T10:06:23.668Z,26.20
2018-07-24T10:08:52.868Z,26.10
2018-07-24T10:11:22.207Z,26.10
2018-07-24T10:13:51.548Z,26.00
2018-07-24T10:16:20.803Z,25.90
2018-07-24T10:18:50.088Z,25.90
2018-07-24T10:21:19.280Z,25.90
2018-07-24T10:23:48.541Z,25.90
2018-07-24T10:26:17.840Z,25.80
2018-07-24T10:28:47.075Z,25.90
2018-07-24T10:31:16.278Z,25.90
2018-07-24T10:33:45.422Z,26.00
2018-07-24T10:36:14.608Z,26.10
2018-07-24T10:38:43.895Z,26.20
2018-07-24T10:41:13.151Z,26.30
2018-07-24T10:43:42.383Z,26.30
2018-07-24T10:46:11.656Z,26.50
2018-07-24T10:48:40.915Z,26.60
2018-07-24T10:51:10.417Z,26.60
2018-07-24T10:53:39.616Z,26.70
2018-07-24T10:56:09.023Z,26.70
2018-07-24T10:58:38.250Z,26.80
2018-07-24T11:01:07.575Z,26.90
2018-07-24T11:03:36.806Z,26.90
2018-07-24T11:06:06.376Z,26.90
2018-07-24T11:08:35.556Z,27.00
2018-07-24T11:11:04.821Z,27.10
2018-07-24T11:13:34.030Z,27.20
2018-07-24T11:16:03.380Z,27.30
2018-07-24T11:18:32.600Z,27.40
2018-07-24T11:21:01.775Z,27.30
2018-07-24T11:25:59.763Z,27.40
2018-07-24T11:28:28.974Z,27.40
2018-07-24T11:30:58.331Z,27.40
2018-07-24T11:33:28.403Z,27.50
2018-07-24T11:35:57.882Z,27.60
2018-07-24T11:40:55.903Z,27.60
2018-07-24T11:43:25.427Z,27.60
2018-07-24T11:45:54.732Z,27.70
2018-07-24T11:48:24.008Z,27.70
2018-07-24T11:50:54.598Z,27.70
2018-07-24T11:53:24.506Z,27.70
2018-07-24T11:55:53.946Z,27.70
2018-07-24T11:58:23.506Z,27.70
2018-07-24T12:00:52.743Z,27.80
2018-07-24T12:03:22.065Z,27.90
2018-07-24T12:05:51.336Z,28.00
2018-07-24T12:08:20.480Z,27.90
2018-07-24T12:10:49.838Z,28.00
2018-07-24T12:13:19.051Z,28.10
2018-07-24T12:15:48.319Z,28.30
2018-07-24T12:18:17.378Z,28.50
2018-07-24T12:20:46.446Z,28.60
2018-07-24T12:23:15.539Z,28.80
2018-07-24T12:25:44.852Z,29.00
2018-07-24T12:28:13.992Z,29.10
2018-07-24T12:30:43.277Z,29.30
2018-07-24T12:33:12.479Z,29.40
2018-07-24T12:35:41.678Z,29.40
2018-07-24T12:38:10.980Z,29.40
2018-07-24T12:40:40.212Z,29.40
2018-07-24T12:43:09.984Z,29.50
2018-07-24T12:45:39.250Z,29.50
2018-07-24T12:50:37.232Z,29.40
2018-07-24T12:53:06.494Z,29.40
2018-07-24T12:55:35.671Z,29.50
2018-07-24T12:58:04.940Z,29.50
2018-07-24T13:00:34.315Z,29.60
2018-07-24T13:03:03.661Z,29.70
2018-07-24T13:05:32.911Z,29.90
2018-07-24T13:08:02.214Z,30.10
2018-07-24T13:10:31.616Z,30.10
2018-07-24T13:13:02.407Z,30.10
2018-07-24T13:15:31.775Z,30.20
2018-07-24T13:18:01.147Z,30.20
2018-07-24T13:20:30.701Z,30.10
2018-07-24T13:23:00.071Z,30.10
2018-07-24T13:25:29.561Z,29.90
2018-07-24T13:27:59.011Z,29.70
2018-07-24T13:30:28.342Z,29.60
2018-07-24T13:32:58.147Z,29.40
2018-07-24T13:35:27.716Z,29.30
2018-07-24T13:37:57.293Z,29.30
2018-07-24T13:40:26.774Z,29.40
2018-07-24T13:42:56.427Z,29.40
2018-07-24T13:45:25.743Z,29.60
2018-07-24T13:47:54.951Z,29.60
2018-07-24T13:50:24.131Z,29.70
2018-07-24T13:52:53.386Z,29.70
2018-07-24T13:55:22.571Z,29.90
2018-07-24T13:57:51.699Z,30.00
2018-07-24T14:00:21.134Z,30.00
2018-07-24T14:05:49.678Z,30.00
2018-07-24T14:08:36.096Z,29.90
2018-07-24T14:11:05.795Z,29.90
2018-07-24T14:13:35.179Z,29.90
2018-07-24T14:16:04.663Z,29.90
2018-07-24T14:18:33.983Z,29.90
2018-07-24T14:21:03.201Z,29.90
2018-07-24T14:23:32.611Z,29.90
2018-07-24T14:26:01.964Z,29.90
2018-07-24T14:28:31.372Z,29.90
2018-07-24T14:33:29.318Z,30.00
2018-07-24T14:35:58.434Z,30.10
2018-07-24T14:38:27.718Z,30.20
2018-07-24T14:40:56.907Z,30.20
2018-07-24T14:43:26.127Z,30.20
2018-07-24T14:45:55.379Z,30.20
2018-07-24T14:48:24.663Z,30.10
2018-07-24T14:50:53.969Z,30.10
2018-07-24T14:53:23.263Z,30.00
2018-07-24T14:55:52.671Z,29.90
2018-07-24T14:58:22.007Z,29.90
2018-07-24T15:00:51.533Z,30.00
2018-07-24T15:03:20.836Z,30.00
2018-07-24T15:05:50.248Z,29.90
2018-07-24T15:08:19.451Z,29.90
2018-07-24T15:10:48.729Z,29.90
2018-07-24T15:13:18.011Z,29.90
2018-07-24T15:15:47.319Z,29.80
2018-07-24T15:18:16.615Z,29.80
2018-07-24T15:20:45.884Z,29.70
2018-07-24T15:23:15.155Z,29.70
2018-07-24T15:25:44.374Z,29.70
2018-07-24T15:28:13.675Z,29.60
2018-07-24T15:30:42.875Z,29.50
2018-07-24T15:33:12.223Z,29.40
2018-07-24T15:35:41.463Z,29.40
2018-07-24T15:38:10.748Z,29.30
2018-07-24T15:40:40.228Z,29.30
2018-07-24T15:43:09.752Z,29.30
2018-07-24T15:45:39.348Z,29.30
2018-07-24T15:48:08.548Z,29.30
2018-07-24T15:50:37.773Z,29.30
2018-07-24T15:53:07.281Z,29.20
2018-07-24T15:55:36.501Z,29.20
2018-07-24T15:58:06.792Z,29.10
2018-07-24T16:00:36.081Z,29.10
2018-07-24T16:05:44.435Z,29.00
2018-07-24T16:08:13.619Z,28.90
2018-07-24T16:10:42.817Z,28.90
2018-07-24T16:13:12.048Z,28.80
2018-07-24T16:15:41.454Z,28.80
2018-07-24T16:18:11.369Z,28.70
2018-07-24T16:20:42.289Z,28.70
2018-07-24T16:23:15.601Z,28.70
2018-07-24T16:25:44.844Z,28.70
2018-07-24T16:28:14.108Z,28.70
2018-07-24T16:30:43.202Z,28.60
2018-07-24T16:33:12.797Z,28.60
2018-07-24T16:35:42.177Z,28.60
2018-07-24T16:38:11.481Z,28.60
2018-07-24T16:40:40.812Z,28.60
2018-07-24T16:43:12.279Z,28.50
2018-07-24T16:45:41.621Z,28.40
2018-07-24T16:48:10.966Z,28.40
2018-07-24T16:50:40.272Z,28.30
2018-07-24T16:53:09.590Z,28.30
2018-07-24T16:55:39.018Z,28.30
2018-07-24T16:58:08.295Z,28.20
2018-07-24T17:00:37.872Z,28.20
2018-07-24T17:03:07.092Z,28.20
2018-07-24T17:05:36.416Z,28.20
2018-07-24T17:08:05.638Z,28.10
2018-07-24T17:10:35.147Z,28.10
2018-07-24T17:13:04.648Z,28.10
2018-07-24T17:15:34.224Z,28.00
2018-07-24T17:18:07.276Z,28.00
2018-07-24T17:20:36.506Z,27.90
2018-07-24T17:23:05.883Z,27.80
2018-07-24T17:25:35.128Z,27.80
2018-07-24T17:28:04.482Z,27.70
2018-07-24T17:30:34.685Z,27.70
2018-07-24T17:33:06.712Z,27.70
2018-07-24T17:35:36.494Z,27.70
2018-07-24T17:38:06.025Z,27.60
2018-07-24T17:40:35.485Z,27.60
2018-07-24T17:43:07.720Z,27.50
2018-07-24T17:45:37.210Z,27.50
2018-07-24T17:48:07.852Z,27.40
2018-07-24T17:50:42.056Z,27.40
2018-07-24T17:53:11.291Z,27.30
2018-07-24T17:55:41.043Z,27.30
2018-07-24T17:58:10.335Z,27.20
2018-07-24T18:00:43.020Z,27.20
2018-07-24T18:03:12.214Z,27.10
2018-07-24T18:05:41.500Z,27.10
2018-07-24T18:08:11.497Z,27.00
2018-07-24T18:10:43.256Z,26.90
2018-07-24T18:13:12.460Z,26.90
2018-07-24T18:15:41.707Z,26.80
2018-07-24T18:18:11.091Z,26.70
2018-07-24T18:20:40.663Z,26.70
2018-07-24T18:23:14.608Z,26.60
2018-07-24T18:25:43.982Z,26.50
2018-07-24T18:28:13.219Z,26.50
2018-07-24T18:30:42.854Z,26.40
2018-07-24T18:33:13.338Z,26.40
2018-07-24T18:35:42.861Z,26.30
2018-07-24T18:38:12.105Z,26.20
2018-07-24T18:40:41.375Z,26.20
2018-07-24T18:43:11.715Z,26.10
2018-07-24T18:45:40.992Z,26.00
2018-07-24T18:48:10.824Z,26.00
2018-07-24T18:50:40.133Z,25.90
2018-07-24T18:53:09.355Z,25.80
2018-07-24T18:55:38.691Z,25.70
2018-07-24T18:58:08.036Z,25.60
2018-07-24T19:00:37.251Z,25.50
2018-07-24T19:03:06.531Z,25.50
2018-07-24T19:05:35.869Z,25.40
2018-07-24T19:08:05.215Z,25.30
2018-07-24T19:10:34.533Z,25.30
2018-07-24T19:13:03.854Z,25.20
2018-07-24T19:15:33.163Z,25.10
2018-07-24T19:18:02.654Z,25.10
2018-07-24T19:20:31.852Z,25.00
2018-07-24T19:23:01.280Z,24.90
2018-07-24T19:25:30.492Z,24.80
2018-07-24T19:27:59.700Z,24.80
2018-07-24T19:30:28.909Z,24.70
2018-07-24T19:35:26.871Z,24.50
2018-07-24T19:37:56.084Z,24.40
2018-07-24T19:40:27.982Z,24.30
2018-07-24T19:42:57.348Z,24.30
2018-07-24T19:45:26.997Z,24.20
2018-07-24T19:47:56.108Z,24.10
2018-07-24T19:50:25.420Z,24.10
2018-07-24T19:52:55.370Z,24.00
2018-07-24T19:55:24.707Z,24.00
2018-07-24T19:57:54.180Z,23.90
2018-07-24T20:00:23.454Z,23.80
2018-07-24T20:02:52.741Z,23.80
2018-07-24T20:05:22.041Z,23.70
2018-07-24T20:07:51.856Z,23.60
2018-07-24T20:10:21.219Z,23.60
2018-07-24T20:12:50.535Z,23.50
2018-07-24T20:17:49.754Z,23.40
2018-07-24T20:20:19.019Z,23.30
2018-07-24T20:22:49.792Z,23.30
2018-07-24T20:25:19.029Z,23.20
2018-07-24T20:27:48.354Z,23.20
2018-07-24T20:32:46.740Z,23.10
2018-07-24T20:35:16.792Z,23.00
2018-07-24T20:37:48.390Z,23.00
2018-07-24T20:40:19.016Z,22.90
2018-07-24T20:42:48.894Z,22.90
2018-07-24T20:45:19.700Z,22.80
2018-07-24T20:47:49.515Z,22.70
2018-07-24T20:50:21.262Z,22.70
2018-07-24T20:52:51.496Z,22.70
2018-07-24T20:55:21.524Z,22.60
2018-07-24T20:57:50.803Z,22.60
2018-07-24T21:00:20.246Z,22.60
2018-07-24T21:02:50.056Z,22.50
2018-07-24T21:05:19.399Z,22.50
2018-07-24T21:07:54.904Z,22.40
2018-07-24T21:10:24.796Z,22.40
2018-07-24T21:12:54.423Z,22.40
2018-07-24T21:15:23.558Z,22.30
2018-07-24T21:17:52.763Z,22.30
2018-07-24T21:20:21.987Z,22.20
2018-07-24T21:22:51.208Z,22.20
2018-07-24T21:25:20.573Z,22.10
2018-07-24T21:27:49.863Z,22.10
2018-07-24T21:30:19.046Z,22.10
2018-07-24T21:32:48.279Z,22.10
2018-07-24T21:35:17.461Z,22.00
2018-07-24T21:37:46.741Z,22.00
2018-07-24T21:40:15.894Z,21.90
2018-07-24T21:42:45.145Z,21.90
2018-07-24T21:45:14.437Z,21.80
2018-07-24T21:47:43.716Z,21.70
2018-07-24T21:50:12.944Z,21.70
2018-07-24T21:52:42.237Z,21.60
2018-07-24T21:55:11.511Z,21.60
2018-07-24T21:57:40.912Z,21.50
2018-07-24T22:00:11.931Z,21.50
2018-07-24T22:02:41.216Z,21.50
2018-07-24T22:05:10.459Z,21.50
2018-07-24T22:07:39.943Z,21.50
2018-07-24T22:10:14.386Z,21.50
2018-07-24T22:12:44.621Z,21.40
2018-07-24T22:15:21.207Z,21.40
2018-07-24T22:17:50.564Z,21.30
2018-07-24T22:20:20.225Z,21.30
2018-07-24T22:22:49.847Z,21.20
2018-07-24T22:25:19.160Z,21.20
2018-07-24T22:27:48.441Z,21.10
2018-07-24T22:30:17.727Z,21.10
2018-07-24T22:32:47.918Z,21.10
2018-07-24T22:35:17.214Z,21.10
2018-07-24T22:37:46.483Z,21.00
2018-07-24T22:40:15.908Z,21.00
2018-07-24T22:42:46.270Z,20.90
2018-07-24T22:45:15.518Z,20.80
2018-07-24T22:47:44.737Z,20.80
2018-07-24T22:50:14.102Z,20.80
2018-07-24T22:52:43.439Z,20.80
2018-07-24T22:55:12.937Z,20.80
2018-07-24T22:57:42.937Z,20.70
2018-07-24T23:00:13.134Z,20.70
2018-07-24T23:02:43.552Z,20.60
2018-07-24T23:05:13.436Z,20.60
2018-07-24T23:07:42.883Z,20.50
2018-07-24T23:10:12.075Z,20.50
2018-07-24T23:12:41.294Z,20.50
2018-07-24T23:15:10.584Z,20.40
2018-07-24T23:17:39.783Z,20.40
2018-07-24T23:20:09.012Z,20.40
2018-07-24T23:22:38.240Z,20.30
2018-07-24T23:25:07.523Z,20.30
2018-07-24T23:27:36.785Z,20.20
2018-07-24T23:30:06.123Z,20.20
2018-07-24T23:32:35.441Z,20.20
2018-07-24T23:35:05.125Z,20.20
2018-07-24T23:37:34.390Z,20.10
2018-07-24T23:40:03.807Z,20.10
2018-07-24T23:42:33.060Z,20.10
2018-07-24T23:45:02.367Z,20.10
2018-07-24T23:47:31.643Z,20.00
2018-07-24T23:50:00.907Z,20.00
2018-07-24T23:52:30.127Z,19.90
2018-07-24T23:54:59.619Z,19.90
2018-07-24T23:57:28.983Z,19.90
2018-07-24T23:59:58.366Z,19.90
